Time;durP1;ratioP1;P1;durP2;ratioP2;P2;SDS_P1;SDS_P2;PMS_P1;PMS_P2;Temp;Humidity;BMP_temperature;BMP_pressure;BME280_temperature;BME280_humidity;BME280_pressure;Samples;Min_cycle;Max_cycle;Signal;HPM_P1;HPM_P2
2022/06/22 00:00:52;;;;;;;3.83;1.90;;;25.80;46.50;;;;;;5012272;28;20041;-64
2022/06/22 00:03:19;;;;;;;3.55;2.00;;;25.80;46.50;;;;;;5013253;28;20041;-68
2022/06/22 00:05:49;;;;;;;3.75;2.20;;;25.80;46.50;;;;;;5011433;28;20535;-63
2022/06/22 00:08:46;;;;;;;3.13;1.98;;;25.80;46.40;;;;;;5014297;28;20048;-61
2022/06/22 00:11:15;;;;;;;3.00;1.85;;;25.80;46.40;;;;;;5010809;28;20423;-65
2022/06/22 00:13:53;;;;;;;2.75;1.85;;;25.80;46.40;;;;;;5012252;28;20029;-64
2022/06/22 00:16:36;;;;;;;2.30;1.60;;;25.80;46.40;;;;;;5011930;28;20064;-65
2022/06/22 00:19:12;;;;;;;2.72;1.80;;;25.80;46.50;;;;;;5004977;28;20336;-64
2022/06/22 00:21:40;;;;;;;3.13;1.92;;;25.80;46.50;;;;;;5009940;28;20032;-65
2022/06/22 00:24:23;;;;;;;2.97;1.90;;;25.80;46.50;;;;;;5011048;28;20048;-64
2022/06/22 00:27:07;;;;;;;3.50;2.20;;;25.80;46.50;;;;;;5014293;28;20041;-67
2022/06/22 00:29:35;;;;;;;2.45;1.80;;;25.80;46.50;;;;;;4991400;28;20117;-63
2022/06/22 00:32:29;;;;;;;3.05;1.85;;;25.80;46.50;;;;;;5011516;28;20517;-67
2022/06/22 00:34:54;;;;;;;2.78;2.00;;;25.80;46.50;;;;;;5013398;28;20108;-63
2022/06/22 00:37:31;;;;;;;2.80;1.70;;;25.80;46.50;;;;;;5015289;28;20481;-63
2022/06/22 00:40:00;;;;;;;2.97;1.83;;;25.80;46.50;;;;;;5009325;28;20510;-67
2022/06/22 00:42:31;;;;;;;2.67;1.90;;;25.80;46.50;;;;;;5009350;28;20125;-64
2022/06/22 00:45:06;;;;;;;2.83;1.88;;;25.80;46.60;;;;;;5013504;28;20027;-65
2022/06/22 00:47:33;;;;;;;2.80;1.90;;;25.80;46.50;;;;;;5012707;28;20045;-62
2022/06/22 00:50:06;;;;;;;2.92;1.85;;;25.80;46.50;;;;;;5010570;28;20091;-62
2022/06/22 00:52:41;;;;;;;3.15;1.80;;;25.80;46.50;;;;;;5013382;28;20083;-69
2022/06/22 00:55:23;;;;;;;2.30;1.55;;;25.80;46.50;;;;;;5022793;28;20022;-65
2022/06/22 00:58:00;;;;;;;3.00;2.00;;;25.80;46.50;;;;;;5009335;28;20769;-66
2022/06/22 01:00:30;;;;;;;2.80;1.80;;;25.80;46.50;;;;;;5010300;28;20049;-63
2022/06/22 01:03:01;;;;;;;2.50;1.70;;;25.80;46.50;;;;;;5012168;28;20040;-65
2022/06/22 01:05:32;;;;;;;2.15;1.70;;;25.80;46.50;;;;;;4993890;28;20030;-64
2022/06/22 01:08:07;;;;;;;3.13;1.90;;;25.80;46.60;;;;;;5010005;28;20524;-61
2022/06/22 01:10:51;;;;;;;2.78;1.80;;;25.80;46.50;;;;;;5006747;28;20091;-65
2022/06/22 01:13:38;;;;;;;1.90;1.50;;;25.80;46.60;;;;;;5012969;28;20029;-67
2022/06/22 01:16:27;;;;;;;2.45;1.55;;;25.80;46.60;;;;;;5009981;28;20041;-65
2022/06/22 01:19:00;;;;;;;2.38;1.50;;;25.80;46.60;;;;;;5013549;28;20037;-64
2022/06/22 01:21:33;;;;;;;2.78;1.80;;;25.80;46.60;;;;;;5010857;28;20025;-69
2022/06/22 01:24:19;;;;;;;2.72;1.88;;;25.80;46.60;;;;;;5009712;28;20378;-62
2022/06/22 01:27:22;;;;;;;3.15;1.83;;;25.80;46.60;;;;;;5008985;28;20682;-66
2022/06/22 01:30:00;;;;;;;2.00;1.60;;;25.80;46.60;;;;;;5012996;28;20033;-66
2022/06/22 01:32:29;;;;;;;2.35;1.58;;;25.80;46.60;;;;;;5007729;28;20037;-68
2022/06/22 01:34:59;;;;;;;2.63;1.60;;;25.80;46.60;;;;;;5012065;28;20026;-66
2022/06/22 01:37:29;;;;;;;2.47;1.65;;;25.80;46.60;;;;;;5005810;28;21049;-68
2022/06/22 01:40:12;;;;;;;2.00;1.50;;;25.80;46.60;;;;;;5008940;28;20048;-66
2022/06/22 01:42:45;;;;;;;3.15;1.80;;;25.80;46.60;;;;;;5012626;28;20392;-68
2022/06/22 01:45:24;;;;;;;2.60;1.63;;;25.80;46.60;;;;;;5012483;28;20576;-66
2022/06/22 01:47:56;;;;;;;2.45;1.70;;;25.80;46.60;;;;;;5009109;28;20025;-63
2022/06/22 01:50:35;;;;;;;2.58;1.67;;;25.80;46.60;;;;;;5012386;28;20129;-63
2022/06/22 01:53:24;;;;;;;2.22;1.50;;;25.80;46.60;;;;;;5011263;28;20030;-65
2022/06/22 01:55:49;;;;;;;;;;;25.80;46.60;;;;;;5007500;28;20121;-66
2022/06/22 01:58:15;;;;;;;2.03;1.40;;;25.80;46.60;;;;;;5004427;28;20024;-65
2022/06/22 02:01:13;;;;;;;2.17;1.65;;;25.80;46.60;;;;;;5012018;28;20133;-67
2022/06/22 02:03:45;;;;;;;2.40;1.77;;;25.80;46.60;;;;;;5011130;28;20120;-65
2022/06/22 02:09:10;;;;;;;2.70;1.65;;;25.70;46.60;;;;;;5010757;28;20151;-65
2022/06/22 02:11:42;;;;;;;2.75;1.70;;;25.70;46.60;;;;;;5011383;28;20076;-64
2022/06/22 02:14:22;;;;;;;2.25;1.55;;;25.70;46.60;;;;;;5012102;28;20033;-64
2022/06/22 02:16:57;;;;;;;2.85;1.70;;;25.80;46.60;;;;;;5007414;28;20087;-64
2022/06/22 02:19:24;;;;;;;2.35;1.50;;;25.70;46.60;;;;;;5010401;28;20034;-61
2022/06/22 02:21:58;;;;;;;2.45;1.55;;;25.70;46.60;;;;;;5011042;28;20037;-67
2022/06/22 02:24:31;;;;;;;2.25;1.35;;;25.70;47.10;;;;;;5011714;28;20064;-64
2022/06/22 02:27:22;;;;;;;2.25;1.33;;;25.80;46.60;;;;;;5007891;28;20482;-65
2022/06/22 02:29:55;;;;;;;2.10;1.40;;;25.80;46.60;;;;;;5010146;28;20041;-66
2022/06/22 02:32:43;;;;;;;2.33;1.40;;;25.70;46.60;;;;;;5009607;28;20040;-64
2022/06/22 02:35:11;;;;;;;2.15;1.40;;;25.80;46.60;;;;;;5013744;28;20029;-66
2022/06/22 02:37:43;;;;;;;1.85;1.40;;;25.70;46.60;;;;;;5006906;28;20033;-60
2022/06/22 02:40:14;;;;;;;2.30;1.58;;;25.70;46.60;;;;;;5010566;28;20034;-63
2022/06/22 02:45:25;;;;;;;2.08;1.30;;;25.70;46.60;;;;;;5012698;28;20115;-65
2022/06/22 02:48:01;;;;;;;1.98;1.48;;;25.70;46.60;;;;;;5009768;28;20092;-63
2022/06/22 02:50:43;;;;;;;2.05;1.42;;;25.70;46.60;;;;;;5013342;28;20389;-63
2022/06/22 02:53:23;;;;;;;2.15;1.50;;;25.70;46.60;;;;;;5008344;28;20040;-64
2022/06/22 02:55:50;;;;;;;2.25;1.50;;;25.70;46.60;;;;;;5010652;28;20145;-63
2022/06/22 02:58:30;;;;;;;1.90;1.40;;;25.70;46.60;;;;;;5010721;28;20120;-63
2022/06/22 03:01:06;;;;;;;1.80;1.40;;;25.70;46.60;;;;;;5013108;28;20049;-64
2022/06/22 03:03:34;;;;;;;1.70;1.30;;;25.70;46.70;;;;;;5011473;28;20030;-64
2022/06/22 03:06:00;;;;;;;1.77;1.40;;;25.70;46.60;;;;;;5011610;28;20041;-63
2022/06/22 03:08:26;;;;;;;1.92;1.38;;;25.70;46.60;;;;;;5013882;28;20108;-64
2022/06/22 03:11:02;;;;;;;2.08;1.20;;;25.70;46.60;;;;;;5011386;28;20381;-64
2022/06/22 03:13:39;;;;;;;2.35;1.33;;;25.70;46.60;;;;;;5013864;28;20036;-68
2022/06/22 03:16:09;;;;;;;2.05;1.35;;;25.70;46.70;;;;;;5013291;28;20025;-66
2022/06/22 03:18:40;;;;;;;2.45;1.30;;;25.70;46.60;;;;;;5012995;28;20168;-65
2022/06/22 03:21:10;;;;;;;1.45;1.17;;;25.70;46.60;;;;;;5013015;28;20128;-64
2022/06/22 03:24:03;;;;;;;1.83;1.23;;;25.70;46.60;;;;;;5015647;28;20037;-65
2022/06/22 03:26:39;;;;;;;1.70;1.27;;;25.80;46.70;;;;;;5009901;28;20041;-67
2022/06/22 03:29:13;;;;;;;2.17;1.42;;;25.70;46.70;;;;;;5013127;28;20366;-63
2022/06/22 03:31:45;;;;;;;2.08;1.42;;;25.70;46.70;;;;;;5012572;28;20136;-68
2022/06/22 03:34:17;;;;;;;1.58;1.27;;;25.70;46.70;;;;;;5006803;28;20351;-65
2022/06/22 03:36:53;;;;;;;2.17;1.20;;;25.70;46.70;;;;;;5011974;28;20607;-63
2022/06/22 03:39:21;;;;;;;1.98;1.30;;;25.70;46.70;;;;;;5009467;28;20056;-68
2022/06/22 03:41:55;;;;;;;1.67;1.20;;;25.70;46.70;;;;;;5012334;28;20453;-66
2022/06/22 03:44:29;;;;;;;1.33;1.20;;;25.70;46.70;;;;;;5008560;28;21882;-65
2022/06/22 03:47:21;;;;;;;1.92;1.30;;;25.70;46.70;;;;;;5012121;28;20473;-63
2022/06/22 03:50:07;;;;;;;1.88;1.30;;;25.70;46.70;;;;;;5008318;28;20064;-63
2022/06/22 03:52:38;;;;;;;1.70;1.10;;;25.70;46.70;;;;;;5007083;28;20069;-65
2022/06/22 03:55:12;;;;;;;2.35;1.30;;;25.70;46.80;;;;;;5007183;28;20134;-65
2022/06/22 03:57:43;;;;;;;3.72;1.48;;;25.70;47.50;;;;;;5004419;28;20030;-65
2022/06/22 04:00:10;;;;;;;2.55;1.42;;;25.70;47.90;;;;;;5013815;28;20863;-65
2022/06/22 04:02:36;;;;;;;4.15;1.40;;;25.70;48.10;;;;;;5013644;28;20028;-66
2022/06/22 04:05:04;;;;;;;3.28;1.42;;;25.70;48.30;;;;;;5009985;28;20463;-68
2022/06/22 04:07:35;;;;;;;5.10;1.25;;;25.70;48.40;;;;;;5010478;28;20502;-66
2022/06/22 04:10:02;;;;;;;3.10;1.15;;;25.70;48.50;;;;;;5007426;28;20056;-65
2022/06/22 04:12:36;;;;;;;2.38;1.30;;;25.70;48.60;;;;;;5009646;28;20053;-67
2022/06/22 04:15:30;;;;;;;4.53;1.40;;;25.70;48.70;;;;;;5011186;28;20037;-68
2022/06/22 04:18:01;;;;;;;3.42;1.10;;;25.70;48.80;;;;;;5012207;28;20112;-65
2022/06/22 04:20:50;;;;;;;2.38;1.20;;;25.70;48.70;;;;;;5014043;28;20042;-62
2022/06/22 04:23:40;;;;;;;2.20;1.00;;;25.70;48.80;;;;;;5008250;28;20386;-67
2022/06/22 04:26:25;;;;;;;3.67;1.30;;;25.70;48.70;;;;;;5011020;28;20426;-67
2022/06/22 04:28:58;;;;;;;1.88;1.13;;;25.70;48.80;;;;;;5011929;28;20029;-68
2022/06/22 04:31:35;;;;;;;4.38;1.30;;;25.60;48.60;;;;;;5013788;28;20041;-65
2022/06/22 04:34:06;;;;;;;2.33;1.15;;;25.60;49.30;;;;;;5009047;28;20097;-66
2022/06/22 04:36:39;;;;;;;3.60;1.20;;;25.60;48.80;;;;;;5011134;28;20052;-63
2022/06/22 04:39:23;;;;;;;2.58;1.10;;;25.50;48.90;;;;;;5007734;28;20031;-66
2022/06/22 04:41:50;;;;;;;3.33;1.30;;;25.50;49.00;;;;;;5006965;28;20549;-65
2022/06/22 04:44:22;;;;;;;2.60;1.30;;;25.50;49.20;;;;;;5003191;28;20469;-63
2022/06/22 04:46:55;;;;;;;3.72;1.30;;;25.50;49.50;;;;;;5010522;28;20037;-65
2022/06/22 04:49:34;;;;;;;2.67;1.30;;;25.50;49.70;;;;;;5010090;28;22399;-65
2022/06/22 04:52:07;;;;;;;;;;;25.40;49.70;;;;;;5012829;28;20037;-68
2022/06/22 04:54:37;;;;;;;2.30;1.20;;;25.40;50.00;;;;;;5008741;28;19971;-69
2022/06/22 04:57:11;;;;;;;2.42;1.33;;;25.40;50.00;;;;;;5009927;28;20062;-66
2022/06/22 04:59:38;;;;;;;2.28;1.20;;;25.40;49.90;;;;;;5011224;28;20048;-63
2022/06/22 05:02:09;;;;;;;2.38;1.10;;;25.40;49.90;;;;;;5010509;28;20468;-65
2022/06/22 05:04:39;;;;;;;2.13;1.10;;;25.40;49.90;;;;;;5011820;28;20056;-66
2022/06/22 05:07:16;;;;;;;3.25;1.30;;;25.40;49.80;;;;;;5011494;28;20111;-67
2022/06/22 05:09:59;;;;;;;4.03;1.30;;;25.40;49.80;;;;;;5011485;28;20031;-65
2022/06/22 05:12:27;;;;;;;3.08;1.10;;;25.40;49.70;;;;;;4997282;28;20125;-64
2022/06/22 05:14:56;;;;;;;2.35;1.20;;;25.40;49.50;;;;;;5013384;28;20038;-62
2022/06/22 05:17:27;;;;;;;;;;;25.40;49.50;;;;;;5012403;28;20021;-62
2022/06/22 05:20:31;;;;;;;4.03;1.20;;;25.40;49.50;;;;;;5014139;28;20403;-65
2022/06/22 05:23:00;;;;;;;2.47;1.10;;;25.40;49.50;;;;;;5000172;28;20069;-64
2022/06/22 05:25:28;;;;;;;2.60;1.05;;;25.40;49.40;;;;;;5008647;28;20378;-64
2022/06/22 05:28:12;;;;;;;3.60;1.17;;;25.40;49.30;;;;;;5010344;28;20327;-64
2022/06/22 05:30:46;;;;;;;3.53;1.10;;;25.40;49.20;;;;;;5014352;28;20099;-62
2022/06/22 05:33:16;;;;;;;1.92;1.02;;;25.40;49.20;;;;;;5012522;28;20025;-64
2022/06/22 05:36:01;;;;;;;1.42;1.05;;;25.40;49.30;;;;;;5012169;28;20029;-64
2022/06/22 05:38:28;;;;;;;2.25;1.13;;;25.40;49.10;;;;;;5011284;28;20021;-64
2022/06/22 05:40:54;;;;;;;2.85;1.10;;;25.40;49.10;;;;;;5011998;28;20033;-65
2022/06/22 05:43:21;;;;;;;2.35;1.20;;;25.40;49.10;;;;;;5011367;28;20038;-63
2022/06/22 05:45:54;;;;;;;2.15;1.10;;;25.40;49.00;;;;;;5013765;28;20038;-67
2022/06/22 05:48:23;;;;;;;2.00;1.02;;;25.40;49.00;;;;;;5010494;28;20070;-64
2022/06/22 05:50:48;;;;;;;1.92;1.10;;;25.40;49.00;;;;;;5011462;28;20497;-64
2022/06/22 05:53:20;;;;;;;1.60;1.10;;;25.40;49.00;;;;;;5008506;28;20167;-65
2022/06/22 05:56:15;;;;;;;1.55;1.00;;;25.40;48.90;;;;;;5013236;28;20402;-67
2022/06/22 05:59:22;;;;;;;2.28;1.25;;;25.40;49.00;;;;;;4998455;28;20049;-67
2022/06/22 06:02:17;;;;;;;3.10;1.40;;;25.40;48.90;;;;;;5004523;28;20124;-64
2022/06/22 06:05:09;;;;;;;2.03;1.13;;;25.40;48.90;;;;;;5010714;28;20018;-64
2022/06/22 06:07:49;;;;;;;2.65;1.20;;;25.40;48.80;;;;;;5009552;28;20045;-67
2022/06/22 06:10:33;;;;;;;2.08;1.00;;;25.40;48.80;;;;;;5008998;28;20471;-64
2022/06/22 06:13:20;;;;;;;1.80;1.08;;;25.40;48.80;;;;;;5011215;28;20045;-64
2022/06/22 06:15:51;;;;;;;2.25;1.20;;;25.40;48.70;;;;;;5012786;28;20037;-65
2022/06/22 06:18:21;;;;;;;1.55;1.00;;;25.40;48.80;;;;;;5008349;28;20025;-65
2022/06/22 06:20:50;;;;;;;1.40;1.08;;;25.40;48.70;;;;;;5006165;28;20033;-62
2022/06/22 06:23:23;;;;;;;2.20;1.20;;;25.40;48.70;;;;;;5010226;28;20029;-63
2022/06/22 06:28:59;;;;;;;2.92;1.30;;;25.40;48.70;;;;;;5006630;28;20036;-64
2022/06/22 06:31:34;;;;;;;2.65;1.10;;;25.40;48.70;;;;;;5008495;28;20030;-64
2022/06/22 06:34:02;;;;;;;2.65;1.20;;;25.40;48.60;;;;;;5009959;28;20050;-64
2022/06/22 06:36:54;;;;;;;1.15;1.00;;;25.40;48.60;;;;;;5011054;28;20029;-64
2022/06/22 06:39:25;;;;;;;1.88;0.95;;;25.40;49.20;;;;;;5012087;28;20037;-67
2022/06/22 06:42:03;;;;;;;1.92;1.15;;;25.40;48.60;;;;;;5010148;28;20041;-64
2022/06/22 06:44:38;;;;;;;1.48;1.05;;;25.40;48.60;;;;;;5012804;28;20037;-67
2022/06/22 06:47:10;;;;;;;2.72;1.00;;;25.40;48.60;;;;;;5015709;28;20045;-64
2022/06/22 06:49:40;;;;;;;1.50;1.00;;;25.40;48.60;;;;;;5016082;28;20021;-62
2022/06/22 06:52:34;;;;;;;1.70;1.00;;;25.40;48.60;;;;;;5015649;28;20529;-66
2022/06/22 06:55:24;;;;;;;3.00;0.90;;;25.40;48.50;;;;;;5013123;28;20045;-63
2022/06/22 06:58:26;;;;;;;1.67;1.00;;;25.40;48.50;;;;;;5010528;28;20114;-64
2022/06/22 07:00:51;;;;;;;1.92;0.90;;;25.40;48.60;;;;;;5001417;28;20046;-65
2022/06/22 07:03:38;;;;;;;1.95;1.10;;;25.40;48.60;;;;;;5016101;28;20375;-64
2022/06/22 07:06:04;;;;;;;1.77;1.00;;;25.30;48.50;;;;;;5013126;28;20033;-63
2022/06/22 07:08:34;;;;;;;1.70;1.00;;;25.40;48.50;;;;;;5014869;28;20036;-63
2022/06/22 07:11:13;;;;;;;1.52;1.02;;;25.40;48.50;;;;;;5014817;28;20175;-64
2022/06/22 07:13:42;;;;;;;;;;;25.40;48.50;;;;;;5015136;28;20025;-63
2022/06/22 07:16:18;;;;;;;1.83;1.10;;;25.40;48.50;;;;;;5014832;28;19909;-66
2022/06/22 07:19:03;;;;;;;1.33;1.00;;;25.40;48.50;;;;;;5012488;28;20394;-67
2022/06/22 07:21:41;;;;;;;1.80;1.05;;;25.40;48.50;;;;;;5017606;28;21645;-63
2022/06/22 07:24:45;;;;;;;1.10;0.90;;;25.40;48.50;;;;;;5009471;28;20390;-67
2022/06/22 07:27:29;;;;;;;2.42;1.20;;;25.40;48.50;;;;;;5010682;28;20072;-63
2022/06/22 07:30:02;;;;;;;1.48;1.00;;;25.40;48.50;;;;;;5013730;28;20025;-63
2022/06/22 07:32:30;;;;;;;2.47;1.15;;;25.40;48.60;;;;;;5014317;28;20041;-63
2022/06/22 07:35:19;;;;;;;1.30;0.98;;;25.40;48.50;;;;;;5006477;28;20442;-64
2022/06/22 07:38:04;;;;;;;;;;;25.40;48.60;;;;;;5014963;28;20041;-65
2022/06/22 07:40:30;;;;;;;2.58;1.05;;;25.40;48.60;;;;;;5012679;28;19928;-65
2022/06/22 07:42:58;;;;;;;2.97;1.10;;;25.40;48.50;;;;;;5016479;28;20022;-64
2022/06/22 07:45:26;;;;;;;2.03;1.08;;;25.40;48.60;;;;;;5012614;28;20029;-63
2022/06/22 07:48:13;;;;;;;1.27;0.90;;;25.40;48.60;;;;;;5014312;28;20716;-66
2022/06/22 07:50:54;;;;;;;1.67;1.10;;;25.40;48.60;;;;;;5014777;28;20033;-65
2022/06/22 07:53:36;;;;;;;1.65;1.00;;;25.40;48.60;;;;;;5013262;28;20030;-63
2022/06/22 07:56:12;;;;;;;1.42;0.90;;;25.40;48.60;;;;;;5010400;28;20091;-65
2022/06/22 07:58:41;;;;;;;1.50;0.90;;;25.40;48.60;;;;;;5010553;28;20034;-64
2022/06/22 08:01:12;;;;;;;1.80;1.00;;;25.40;48.60;;;;;;5014690;28;20144;-65
2022/06/22 08:03:43;;;;;;;1.63;1.00;;;25.40;48.60;;;;;;5015162;28;20040;-64
2022/06/22 08:06:15;;;;;;;2.08;0.90;;;25.40;48.60;;;;;;5014044;28;20021;-64
2022/06/22 08:08:53;;;;;;;1.65;0.90;;;25.40;48.60;;;;;;5011319;28;20688;-65
2022/06/22 08:11:31;;;;;;;2.13;1.23;;;25.40;48.60;;;;;;5012997;28;20034;-67
2022/06/22 08:14:01;;;;;;;1.35;1.00;;;25.40;48.60;;;;;;5011886;28;20097;-62
2022/06/22 08:16:35;;;;;;;1.80;1.00;;;25.40;48.60;;;;;;5016082;28;20060;-63
2022/06/22 08:19:01;;;;;;;1.98;1.20;;;25.40;48.60;;;;;;5012056;28;20029;-67
2022/06/22 08:21:29;;;;;;;2.33;1.30;;;25.40;48.60;;;;;;5014803;28;20026;-65
2022/06/22 08:23:57;;;;;;;1.60;1.10;;;25.40;48.60;;;;;;5014190;28;20025;-66
2022/06/22 08:26:30;;;;;;;1.23;1.00;;;25.40;48.60;;;;;;5010632;28;20029;-65
2022/06/22 08:28:56;;;;;;;1.27;1.00;;;25.40;48.60;;;;;;5011237;28;20339;-65
2022/06/22 08:31:28;;;;;;;1.88;1.20;;;25.40;48.60;;;;;;5014936;28;20034;-62
2022/06/22 08:34:03;;;;;;;1.92;1.00;;;25.40;48.60;;;;;;5012361;28;20029;-65
2022/06/22 08:36:44;;;;;;;1.70;1.10;;;25.40;48.70;;;;;;5013708;28;20116;-67
2022/06/22 08:39:25;;;;;;;1.98;1.10;;;25.40;48.70;;;;;;5012774;28;20037;-65
2022/06/22 08:42:19;;;;;;;1.60;1.10;;;25.40;48.60;;;;;;5014925;28;20025;-64
2022/06/22 08:44:44;;;;;;;1.90;0.90;;;25.40;48.60;;;;;;5007307;28;20501;-65
2022/06/22 08:47:13;;;;;;;1.50;1.10;;;25.40;48.60;;;;;;5009656;28;20057;-66
2022/06/22 08:50:03;;;;;;;1.60;1.13;;;25.40;48.60;;;;;;5010319;28;20029;-61
2022/06/22 08:53:06;;;;;;;1.52;1.13;;;25.40;48.70;;;;;;5013220;28;20037;-61
2022/06/22 08:56:15;;;;;;;1.65;1.10;;;25.40;48.60;;;;;;5009161;28;20138;-64
2022/06/22 08:59:11;;;;;;;1.20;0.95;;;25.40;48.70;;;;;;5011037;28;20442;-66
2022/06/22 09:01:40;;;;;;;1.40;1.00;;;25.40;48.60;;;;;;5014042;28;20124;-64
2022/06/22 09:04:21;;;;;;;1.33;1.05;;;25.40;48.70;;;;;;5004920;28;20104;-65
2022/06/22 09:07:05;;;;;;;1.83;1.15;;;25.40;48.60;;;;;;4999087;28;20568;-67
2022/06/22 09:09:36;;;;;;;2.45;1.15;;;25.40;48.70;;;;;;5002939;28;20055;-64
2022/06/22 09:12:34;;;;;;;1.48;0.93;;;25.40;48.70;;;;;;5011264;28;20025;-63
2022/06/22 09:15:15;;;;;;;2.17;1.10;;;25.40;48.70;;;;;;5008640;28;20029;-67
2022/06/22 09:17:43;;;;;;;1.67;1.10;;;25.40;48.70;;;;;;5010840;28;20349;-64
2022/06/22 09:20:39;;;;;;;1.88;1.30;;;25.40;48.70;;;;;;5009933;28;20029;-63
2022/06/22 09:23:15;;;;;;;1.42;1.00;;;25.40;48.70;;;;;;5003752;28;20026;-62
2022/06/22 09:25:54;;;;;;;1.42;1.00;;;25.40;48.80;;;;;;5008497;28;20435;-64
2022/06/22 09:28:42;;;;;;;;;;;25.40;48.70;;;;;;5009634;28;20119;-63
2022/06/22 09:31:49;;;;;;;1.42;1.02;;;25.40;48.70;;;;;;5006616;28;19920;-64
2022/06/22 09:34:59;;;;;;;2.20;1.15;;;25.40;48.80;;;;;;5008718;28;20034;-64
2022/06/22 09:37:45;;;;;;;1.90;1.30;;;25.40;48.80;;;;;;5004114;28;20026;-63
2022/06/22 09:40:23;;;;;;;1.70;1.15;;;25.40;48.80;;;;;;5010911;28;20029;-64
2022/06/22 09:43:20;;;;;;;1.52;1.00;;;25.40;48.80;;;;;;5006721;28;20025;-61
2022/06/22 09:46:06;;;;;;;1.33;1.10;;;25.40;48.80;;;;;;5011414;28;20544;-62
2022/06/22 09:49:05;;;;;;;1.83;1.20;;;25.40;48.90;;;;;;5005896;28;20021;-64
2022/06/22 09:51:40;;;;;;;1.90;1.20;;;25.40;48.90;;;;;;5009369;28;20034;-64
2022/06/22 09:57:22;;;;;;;1.65;1.08;;;25.40;48.80;;;;;;4987724;28;20704;-65
2022/06/22 09:59:51;;;;;;;1.55;1.10;;;25.40;48.70;;;;;;5008094;28;20037;-63
2022/06/22 10:02:26;;;;;;;1.17;0.95;;;25.40;48.60;;;;;;5008571;28;20418;-65
2022/06/22 10:05:21;;;;;;;1.40;1.00;;;25.40;48.60;;;;;;5008524;28;20025;-62
2022/06/22 10:08:28;;;;;;;1.23;1.02;;;25.40;48.50;;;;;;5004591;28;20465;-64
2022/06/22 10:11:05;;;;;;;1.63;1.10;;;25.40;48.50;;;;;;4999180;28;20090;-64
2022/06/22 10:14:13;;;;;;;1.33;0.90;;;25.40;48.50;;;;;;5008542;28;20043;-61
2022/06/22 10:17:13;;;;;;;1.40;1.10;;;25.50;48.60;;;;;;5004721;28;20030;-65
2022/06/22 10:20:01;;;;;;;1.42;1.08;;;25.40;48.50;;;;;;5008312;28;20061;-64
2022/06/22 10:22:36;;;;;;;1.70;1.15;;;25.40;48.50;;;;;;5006187;28;20036;-64
2022/06/22 10:25:22;;;;;;;2.40;1.10;;;25.50;48.50;;;;;;5008875;28;20080;-65
2022/06/22 10:28:12;;;;;;;1.55;1.10;;;25.40;48.50;;;;;;5004246;28;20052;-66
2022/06/22 10:30:52;;;;;;;1.67;1.10;;;25.40;48.40;;;;;;4998340;28;20068;-62
2022/06/22 10:33:45;;;;;;;1.73;1.20;;;25.50;48.50;;;;;;5007853;28;20032;-62
2022/06/22 10:36:19;;;;;;;1.38;1.02;;;25.50;48.40;;;;;;5011277;28;20036;-63
2022/06/22 10:39:17;;;;;;;1.35;1.00;;;25.50;48.40;;;;;;5007500;28;20045;-66
2022/06/22 10:45:10;;;;;;;1.42;1.00;;;25.50;48.40;;;;;;5008220;28;20438;-65
2022/06/22 10:47:51;;;;;;;1.80;1.23;;;25.50;48.40;;;;;;5010667;28;20061;-64
2022/06/22 10:50:38;;;;;;;1.55;1.23;;;25.50;48.50;;;;;;5012229;28;20033;-64
2022/06/22 10:53:37;;;;;;;1.88;1.10;;;25.50;48.40;;;;;;5008216;28;20374;-63
2022/06/22 10:56:09;;;;;;;2.60;1.17;;;25.50;48.40;;;;;;5004678;28;20744;-62
2022/06/22 10:58:43;;;;;;;1.20;1.00;;;25.50;48.40;;;;;;5010267;28;20043;-62
2022/06/22 11:01:25;;;;;;;2.05;1.30;;;25.50;48.40;;;;;;5006667;28;20510;-62
2022/06/22 11:04:37;;;;;;;1.77;1.20;;;25.50;48.30;;;;;;5009870;28;20030;-62
2022/06/22 11:07:29;;;;;;;1.92;1.10;;;25.50;48.30;;;;;;5010488;28;20745;-60
2022/06/22 11:10:05;;;;;;;1.10;0.88;;;25.50;48.30;;;;;;5007205;28;20502;-63
2022/06/22 11:12:59;;;;;;;1.73;1.20;;;25.50;48.40;;;;;;5011266;28;20053;-62
2022/06/22 11:15:46;;;;;;;1.25;1.10;;;25.50;48.30;;;;;;4997641;28;20038;-62
2022/06/22 11:18:37;;;;;;;1.48;1.00;;;25.50;48.30;;;;;;5005983;28;20029;-67
2022/06/22 11:21:33;;;;;;;2.38;1.30;;;25.50;48.20;;;;;;5005576;28;20070;-65
2022/06/22 11:24:16;;;;;;;1.83;1.27;;;25.50;48.30;;;;;;5006255;28;20112;-63
2022/06/22 11:33:27;;;;;;;1.30;1.00;;;25.50;48.30;;;;;;5010978;28;20036;-64
2022/06/22 11:36:05;;;;;;;1.60;1.10;;;25.50;48.30;;;;;;5014787;28;20029;-66
2022/06/22 11:38:43;;;;;;;1.10;0.90;;;25.50;48.30;;;;;;5013245;28;20022;-63
2022/06/22 11:41:21;;;;;;;2.00;1.23;;;25.50;48.30;;;;;;5006885;28;20041;-66
2022/06/22 11:44:14;;;;;;;1.47;1.07;;;25.50;48.30;;;;;;5011288;28;20041;-65
2022/06/22 11:46:47;;;;;;;1.50;1.00;;;25.50;48.30;;;;;;5011240;28;20314;-64
2022/06/22 11:49:28;;;;;;;1.73;1.00;;;25.50;48.40;;;;;;5012951;28;20057;-61
2022/06/22 11:52:22;;;;;;;1.38;1.10;;;25.50;48.30;;;;;;5009473;28;20026;-63
2022/06/22 11:55:33;;;;;;;2.33;1.17;;;25.50;48.30;;;;;;5012849;28;20037;-66
2022/06/22 11:58:40;;;;;;;1.80;1.10;;;25.50;48.30;;;;;;5008441;28;20077;-65
2022/06/22 12:01:20;;;;;;;1.27;0.90;;;25.50;48.30;;;;;;4998569;28;20737;-62
2022/06/22 12:04:07;;;;;;;1.55;1.10;;;25.50;48.40;;;;;;5008413;28;20503;-66
2022/06/22 12:07:18;;;;;;;2.38;1.20;;;25.50;48.30;;;;;;5008812;28;20026;-64
2022/06/22 12:09:55;;;;;;;1.30;1.10;;;25.50;48.40;;;;;;4999925;28;20091;-67
2022/06/22 12:12:29;;;;;;;1.77;1.10;;;25.50;48.40;;;;;;5008695;28;20128;-65
2022/06/22 12:15:20;;;;;;;1.35;1.20;;;25.50;48.40;;;;;;5014525;28;20113;-64
2022/06/22 12:18:16;;;;;;;1.92;1.30;;;25.50;48.40;;;;;;5006517;28;20029;-65
2022/06/22 12:20:48;;;;;;;1.77;1.20;;;25.50;48.40;;;;;;5009052;28;20338;-62
2022/06/22 12:23:25;;;;;;;2.25;1.30;;;25.50;48.40;;;;;;5005153;28;20022;-65
2022/06/22 12:26:08;;;;;;;2.63;1.20;;;25.50;48.40;;;;;;5004021;28;20156;-62
2022/06/22 12:28:50;;;;;;;1.48;1.17;;;25.50;48.40;;;;;;5008502;28;20021;-65
2022/06/22 12:31:22;;;;;;;2.00;1.20;;;25.50;48.40;;;;;;5004392;28;20033;-66
2022/06/22 12:33:54;;;;;;;1.80;1.10;;;25.50;48.40;;;;;;5008724;28;20029;-62
2022/06/22 12:36:25;;;;;;;1.27;1.05;;;25.60;48.40;;;;;;5010288;28;20227;-66
2022/06/22 12:38:57;;;;;;;1.55;1.08;;;25.50;48.40;;;;;;4999064;28;20036;-65
2022/06/22 12:41:55;;;;;;;1.65;1.10;;;25.50;48.40;;;;;;5005292;28;20033;-65
2022/06/22 12:44:29;;;;;;;1.52;1.20;;;25.50;48.40;;;;;;5010979;28;20125;-62
2022/06/22 12:47:26;;;;;;;1.65;1.20;;;25.50;48.40;;;;;;5009709;28;20076;-64
2022/06/22 12:50:14;;;;;;;1.90;1.30;;;25.50;48.40;;;;;;5005570;28;20445;-64
2022/06/22 12:52:45;;;;;;;1.40;1.08;;;25.50;48.40;;;;;;5008581;28;20037;-66
2022/06/22 12:55:16;;;;;;;1.83;1.20;;;25.50;48.40;;;;;;5011023;28;20032;-65
2022/06/22 12:58:00;;;;;;;2.17;1.50;;;25.50;48.40;;;;;;5005374;28;20545;-65
2022/06/22 13:00:26;;;;;;;1.50;1.10;;;25.50;48.80;;;;;;5010454;28;20172;-64
2022/06/22 13:02:58;;;;;;;1.77;1.20;;;25.50;48.40;;;;;;4996841;28;20638;-65
2022/06/22 13:05:32;;;;;;;1.20;1.10;;;25.50;48.40;;;;;;5013437;28;20037;-66
2022/06/22 13:08:04;;;;;;;2.15;1.20;;;25.50;48.40;;;;;;5006720;28;21205;-63
2022/06/22 13:10:39;;;;;;;1.52;1.23;;;25.50;48.40;;;;;;5009838;28;20026;-66
2022/06/22 13:13:22;;;;;;;1.75;1.10;;;25.60;48.40;;;;;;5008768;28;20133;-67
2022/06/22 13:16:17;;;;;;;1.98;1.45;;;25.50;48.40;;;;;;5009293;28;20069;-67
2022/06/22 13:18:46;;;;;;;1.90;1.40;;;25.60;48.40;;;;;;5006650;28;20030;-65
2022/06/22 13:21:18;;;;;;;1.77;1.13;;;25.50;48.40;;;;;;5002339;28;20121;-66
2022/06/22 13:23:54;;;;;;;2.25;1.40;;;25.50;48.40;;;;;;5001089;28;20594;-64
2022/06/22 13:26:24;;;;;;;2.85;1.40;;;25.50;48.40;;;;;;5008007;28;20052;-64
2022/06/22 13:29:21;;;;;;;1.33;1.10;;;25.60;48.40;;;;;;5003916;28;20029;-64
2022/06/22 13:31:49;;;;;;;1.80;1.20;;;25.50;48.40;;;;;;5000175;28;20136;-66
2022/06/22 13:34:18;;;;;;;1.52;1.13;;;25.50;48.40;;;;;;5013854;28;20060;-67
2022/06/22 13:36:51;;;;;;;2.03;1.27;;;25.60;48.50;;;;;;5010661;28;20585;-62
2022/06/22 13:39:25;;;;;;;1.63;1.20;;;25.60;48.50;;;;;;5002691;28;20053;-63
2022/06/22 13:42:19;;;;;;;1.73;1.17;;;25.60;48.50;;;;;;5006095;28;20121;-67
2022/06/22 13:44:56;;;;;;;1.88;1.40;;;25.60;48.50;;;;;;5009456;28;20034;-66
2022/06/22 13:48:03;;;;;;;1.95;1.30;;;25.60;48.50;;;;;;5010599;28;20032;-67
2022/06/22 13:51:18;;;;;;;2.00;1.30;;;25.60;48.50;;;;;;5011732;28;20025;-66
2022/06/22 13:54:04;;;;;;;2.95;1.40;;;25.60;48.60;;;;;;4988019;28;20502;-66
2022/06/22 13:56:39;;;;;;;1.63;1.25;;;25.50;48.50;;;;;;5006237;28;20040;-67
2022/06/22 13:59:18;;;;;;;1.70;1.20;;;25.60;48.60;;;;;;5004184;28;20033;-61
2022/06/22 14:01:49;;;;;;;2.17;1.40;;;25.60;48.60;;;;;;5010417;28;20034;-65
2022/06/22 14:04:29;;;;;;;2.20;1.40;;;25.60;48.60;;;;;;4999736;28;20743;-65
2022/06/22 14:07:00;;;;;;;1.75;1.40;;;25.60;49.20;;;;;;4998046;28;20108;-65
2022/06/22 14:09:53;;;;;;;1.88;1.40;;;25.60;48.60;;;;;;5009589;28;20113;-62